createdAt,value
2022-08-22T00:02:45.812Z,98509.72
2022-08-22T00:02:55.895Z,98408.72
2022-08-22T00:03:00.776Z,98518.25
2022-08-22T00:06:08.789Z,98393.72
2022-08-22T00:08:57.221Z,98396.00
2022-08-22T00:11:46.162Z,98397.66
2022-08-22T00:17:11.130Z,98394.06
2022-08-22T00:20:28.114Z,98388.84
2022-08-22T00:23:23.246Z,98395.50
2022-08-22T00:26:24.250Z,98392.03
2022-08-22T00:29:01.781Z,98396.94
2022-08-22T00:31:45.015Z,98391.41
2022-08-22T00:34:24.130Z,98393.06
2022-08-22T00:37:32.690Z,98387.50
2022-08-22T00:40:19.440Z,98386.69
2022-08-22T00:43:11.057Z,98385.56
2022-08-22T00:45:56.509Z,98391.09
2022-08-22T00:49:01.096Z,98384.22
2022-08-22T00:51:46.154Z,98391.94
2022-08-22T00:54:47.486Z,98389.16
2022-08-22T00:57:24.767Z,98396.66
2022-08-22T01:00:22.605Z,98393.06
2022-08-22T01:03:48.966Z,98403.00
2022-08-22T01:06:46.003Z,98404.94
2022-08-22T01:09:54.914Z,98406.06
2022-08-22T01:12:50.241Z,98396.13
2022-08-22T01:15:29.392Z,98397.25
2022-08-22T01:18:16.635Z,98396.66
2022-08-22T01:27:06.105Z,98397.25
2022-08-22T01:29:51.384Z,98393.16
2022-08-22T01:33:02.423Z,98403.59
2022-08-22T01:35:47.911Z,98397.25
2022-08-22T01:38:37.097Z,98394.47
2022-08-22T01:41:40.194Z,98390.41
2022-08-22T01:44:28.209Z,98392.53
2022-08-22T01:47:12.633Z,98394.47
2022-08-22T01:49:54.081Z,98393.34
2022-08-22T01:52:31.223Z,98381.16
2022-08-22T01:55:12.301Z,98384.56
2022-08-22T01:57:59.036Z,98380.84
2022-08-22T02:04:01.929Z,98386.69
2022-08-22T02:06:59.351Z,98386.69
2022-08-22T02:10:10.467Z,98373.16
2022-08-22T02:13:08.715Z,98379.69
2022-08-22T02:15:43.991Z,98378.56
2022-08-22T02:18:23.601Z,98380.53
2022-08-22T02:21:22.772Z,98381.03
2022-08-22T02:24:01.145Z,98380.53
2022-08-22T02:27:17.885Z,98372.03
2022-08-22T02:32:40.650Z,98374.50
2022-08-22T02:35:23.042Z,98370.59
2022-08-22T02:38:06.635Z,98364.25
2022-08-22T02:41:05.236Z,98368.63
2022-08-22T02:43:53.405Z,98364.84
2022-08-22T02:46:34.010Z,98367.31
2022-08-22T02:52:27.013Z,98359.31
2022-08-22T02:55:07.239Z,98360.47
2022-08-22T02:57:45.570Z,98362.44
2022-08-22T03:00:31.255Z,98364.56
2022-08-22T03:03:02.856Z,98355.94
2022-08-22T03:05:39.077Z,98357.91
2022-08-22T03:08:25.489Z,98359.31
2022-08-22T03:11:28.780Z,98360.16
2022-08-22T03:14:25.598Z,98355.44
2022-08-22T03:17:17.426Z,98348.78
2022-08-22T03:20:14.821Z,98357.06
2022-08-22T03:23:00.698Z,98337.69
2022-08-22T03:31:35.597Z,98343.53
2022-08-22T03:34:26.465Z,98335.88
2022-08-22T03:37:12.106Z,98333.94
2022-08-22T03:43:58.147Z,98348.59
2022-08-22T03:47:00.870Z,98344.66
2022-08-22T03:49:46.080Z,98345.47
2022-08-22T03:52:29.973Z,98346.63
2022-08-22T03:55:26.685Z,98345.00
2022-08-22T03:58:19.141Z,98341.72
2022-08-22T04:01:35.369Z,98345.00
2022-08-22T04:04:11.908Z,98344.16
2022-08-22T04:13:15.083Z,98345.41
2022-08-22T04:15:58.765Z,98339.38
2022-08-22T04:19:21.871Z,98337.44
2022-08-22T04:22:27.843Z,98339.88
2022-08-22T04:25:25.739Z,98336.63
2022-08-22T04:28:14.010Z,98341.81
2022-08-22T04:31:11.862Z,98344.00
2022-08-22T04:34:00.718Z,98343.47
2022-08-22T04:36:44.020Z,98347.88
2022-08-22T04:39:34.867Z,98341.34
2022-08-22T04:42:32.322Z,98349.75
2022-08-22T04:45:18.295Z,98353.22
2022-08-22T04:47:53.992Z,98358.44
2022-08-22T04:50:27.096Z,98352.69
2022-08-22T04:53:43.493Z,98346.03
2022-08-22T04:56:45.354Z,98345.03
2022-08-22T04:59:18.484Z,98354.03
2022-08-22T05:01:57.219Z,98348.50
2022-08-22T05:04:45.473Z,98362.75
2022-08-22T05:07:29.177Z,98355.28
2022-08-22T05:10:19.126Z,98354.16
2022-08-22T05:13:03.662Z,98353.97
2022-08-22T05:15:38.261Z,98359.69
2022-08-22T05:18:12.509Z,98354.66
2022-08-22T05:20:41.795Z,98360.06
2022-08-22T05:23:25.660Z,98354.34
2022-08-22T05:26:01.266Z,98356.00
2022-08-22T05:28:53.519Z,98364.47
2022-08-22T05:31:40.443Z,98367.25
2022-08-22T05:34:23.194Z,98372.97
2022-08-22T05:37:08.327Z,98363.84
2022-08-22T05:39:40.819Z,98376.75
2022-08-22T05:42:19.026Z,98370.09
2022-08-22T05:44:46.491Z,98367.13
2022-08-22T05:47:24.358Z,98375.63
2022-08-22T05:50:27.364Z,98376.44
2022-08-22T05:53:02.563Z,98382.81
2022-08-22T05:55:52.566Z,98382.16
2022-08-22T05:59:02.888Z,98383.00
2022-08-22T06:02:13.995Z,98382.06
2022-08-22T06:04:54.800Z,98378.78
2022-08-22T06:07:42.759Z,98385.13
2022-08-22T06:10:42.758Z,98391.97
2022-08-22T06:13:47.231Z,98385.31
2022-08-22T06:16:24.709Z,98386.97
2022-08-22T06:18:53.415Z,98391.84
2022-08-22T06:21:38.626Z,98384.91
2022-08-22T06:24:15.929Z,98386.50
2022-08-22T06:26:48.691Z,98382.31
2022-08-22T06:29:44.254Z,98381.66
2022-08-22T06:32:58.263Z,98384.44
2022-08-22T06:35:18.842Z,98385.91
2022-08-22T06:37:48.914Z,98390.16
2022-08-22T06:40:18.711Z,98382.38
2022-08-22T06:42:50.993Z,98372.41
2022-08-22T06:45:26.706Z,98383.69
2022-08-22T06:48:14.076Z,98387.56
2022-08-22T06:50:46.321Z,98392.16
2022-08-22T06:53:38.364Z,98383.56
2022-08-22T06:56:17.932Z,98381.44
2022-08-22T06:58:48.214Z,98382.44
2022-08-22T07:01:57.641Z,98392.56
2022-08-22T07:04:27.559Z,98395.66
2022-08-22T07:06:57.718Z,98394.81
2022-08-22T07:09:30.023Z,98389.28
2022-08-22T07:12:01.545Z,98389.81
2022-08-22T07:14:50.539Z,98396.38
2022-08-22T07:17:25.756Z,98397.91
2022-08-22T07:20:24.070Z,98401.81
2022-08-22T07:23:09.531Z,98408.38
2022-08-22T07:26:09.375Z,98406.84
2022-08-22T07:28:58.610Z,98403.13
2022-08-22T07:31:54.166Z,98413.28
2022-08-22T07:34:53.564Z,98409.06
2022-08-22T07:38:02.232Z,98401.75
2022-08-22T07:41:01.585Z,98405.03
2022-08-22T07:43:36.392Z,98395.56
2022-08-22T07:46:12.776Z,98402.41
2022-08-22T07:52:01.110Z,98401.16
2022-08-22T07:57:51.584Z,98404.03
2022-08-22T08:00:21.942Z,98409.47
2022-08-22T08:03:02.303Z,98409.66
2022-08-22T08:05:33.104Z,98416.50
2022-08-22T08:08:12.270Z,98413.84
2022-08-22T08:10:43.542Z,98418.25
2022-08-22T08:13:22.342Z,98436.22
2022-08-22T08:15:50.778Z,98442.75
2022-08-22T08:18:23.592Z,98440.81
2022-08-22T08:20:58.955Z,98433.28
2022-08-22T08:23:39.024Z,98440.19
2022-08-22T08:26:23.573Z,98436.28
2022-08-22T08:28:56.528Z,98435.13
2022-08-22T08:31:43.396Z,98424.56
2022-08-22T08:34:20.537Z,98429.44
2022-08-22T08:37:07.379Z,98423.59
2022-08-22T08:39:49.977Z,98415.72
2022-08-22T08:43:31.341Z,98404.81
2022-08-22T08:46:38.625Z,98411.81
2022-08-22T08:49:38.751Z,98420.00
2022-08-22T08:53:25.397Z,98408.94
2022-08-22T08:56:06.642Z,98415.78
2022-08-22T08:58:45.881Z,98408.81
2022-08-22T09:01:41.601Z,98422.00
2022-08-22T09:04:56.215Z,98418.13
2022-08-22T09:07:55.268Z,98428.03
2022-08-22T09:10:57.201Z,98427.44
2022-08-22T09:13:40.669Z,98436.88
2022-08-22T09:16:48.156Z,98431.81
2022-08-22T09:19:56.755Z,98434.78
2022-08-22T09:22:50.611Z,98434.84
2022-08-22T09:25:38.615Z,98427.13
2022-08-22T09:28:23.978Z,98432.06
2022-08-22T09:31:44.759Z,98426.53
2022-08-22T09:34:41.602Z,98427.88
2022-08-22T09:37:30.008Z,98427.22
2022-08-22T09:40:29.369Z,98431.16
2022-08-22T09:43:45.068Z,98435.41
2022-08-22T09:46:31.486Z,98435.41
2022-08-22T09:52:55.653Z,98427.56
2022-08-22T09:55:41.724Z,98425.75
2022-08-22T09:58:11.831Z,98429.19
2022-08-22T10:00:47.599Z,98426.91
2022-08-22T10:04:04.540Z,98425.44
2022-08-22T10:06:46.516Z,98422.03
2022-08-22T10:09:31.289Z,98423.53
2022-08-22T10:12:12.801Z,98435.81
2022-08-22T10:15:16.196Z,98429.31
2022-08-22T10:18:19.206Z,98428.84
2022-08-22T10:21:09.676Z,98432.91
2022-08-22T10:24:01.540Z,98436.03
2022-08-22T10:27:07.980Z,98436.19
2022-08-22T10:30:01.326Z,98438.50
2022-08-22T10:33:08.322Z,98436.25
2022-08-22T10:36:05.009Z,98428.59
2022-08-22T10:38:46.511Z,98440.03
2022-08-22T10:41:39.131Z,98439.72
2022-08-22T10:44:22.717Z,98438.44
2022-08-22T10:47:01.190Z,98436.44
2022-08-22T10:49:51.215Z,98434.34
2022-08-22T10:52:37.278Z,98434.03
2022-08-22T10:55:17.850Z,98430.09
2022-08-22T10:58:05.687Z,98430.44
2022-08-22T11:00:54.425Z,98428.03
2022-08-22T11:04:12.781Z,98425.25
2022-08-22T11:06:52.407Z,98427.06
2022-08-22T11:09:43.237Z,98427.03
2022-08-22T11:12:19.572Z,98429.47
2022-08-22T11:15:28.439Z,98430.66
2022-08-22T11:18:34.681Z,98428.84
2022-08-22T11:21:18.827Z,98422.28
2022-08-22T11:24:07.123Z,98422.75
2022-08-22T11:26:59.670Z,98414.94
2022-08-22T11:29:57.846Z,98417.19
2022-08-22T11:33:06.181Z,98409.00
2022-08-22T11:35:49.795Z,98411.94
2022-08-22T11:38:39.657Z,98409.00
2022-08-22T11:41:25.630Z,98415.03
2022-08-22T11:44:32.124Z,98420.91
2022-08-22T11:47:09.148Z,98413.22
2022-08-22T11:50:15.461Z,98416.97
2022-08-22T11:53:15.125Z,98410.88
2022-08-22T11:56:00.413Z,98416.25
2022-08-22T11:58:57.705Z,98415.91
2022-08-22T12:01:52.873Z,98410.31
2022-08-22T12:04:47.439Z,98413.63
2022-08-22T12:07:25.906Z,98405.41
2022-08-22T12:10:19.816Z,98407.19
2022-08-22T12:13:01.449Z,98404.25
2022-08-22T12:15:49.010Z,98386.41
2022-08-22T12:18:33.825Z,98403.38
2022-08-22T12:21:13.455Z,98397.81
2022-08-22T12:23:55.972Z,98391.88
2022-08-22T12:26:41.589Z,98393.53
2022-08-22T12:29:44.907Z,98405.47
2022-08-22T12:33:00.714Z,98394.84
2022-08-22T12:35:43.367Z,98383.34
2022-08-22T12:38:37.839Z,98382.69
2022-08-22T12:41:27.985Z,98372.03
2022-08-22T12:44:22.980Z,98375.63
2022-08-22T12:47:26.799Z,98383.31
2022-08-22T12:50:04.429Z,98391.78
2022-08-22T12:52:48.248Z,98381.00
2022-08-22T12:55:15.903Z,98381.47
2022-08-22T12:58:22.283Z,98373.63
2022-08-22T13:00:52.518Z,98368.50
2022-08-22T13:03:32.843Z,98369.03
2022-08-22T13:06:07.654Z,98379.03
2022-08-22T13:08:45.149Z,98364.13
2022-08-22T13:11:22.662Z,98374.59
2022-08-22T13:13:57.181Z,98367.06
2022-08-22T13:16:26.774Z,98371.81
2022-08-22T13:19:07.841Z,98376.41
2022-08-22T13:21:45.552Z,98360.97
2022-08-22T13:24:41.108Z,98364.63
2022-08-22T13:27:33.144Z,98369.84
2022-08-22T13:30:15.028Z,98364.28
2022-08-22T13:32:52.592Z,98371.97
2022-08-22T13:36:06.666Z,98371.63
2022-08-22T13:38:46.286Z,98371.41
2022-08-22T13:41:24.833Z,98361.56
2022-08-22T13:44:07.209Z,98370.53
2022-08-22T13:46:48.192Z,98362.16
2022-08-22T13:49:53.815Z,98364.88
2022-08-22T13:52:44.412Z,98363.41
2022-08-22T13:55:30.431Z,98370.75
2022-08-22T13:58:25.993Z,98372.53
2022-08-22T14:01:55.934Z,98380.81
2022-08-22T14:04:36.800Z,98385.69
2022-08-22T14:07:04.475Z,98381.75
2022-08-22T14:10:02.637Z,98398.94
2022-08-22T14:12:57.968Z,98389.75
2022-08-22T14:15:45.497Z,98383.84
2022-08-22T14:18:45.438Z,98366.50
2022-08-22T14:21:40.742Z,98367.00
2022-08-22T14:24:26.887Z,98370.00
2022-08-22T14:27:08.528Z,98371.84
2022-08-22T14:30:18.706Z,98370.88
2022-08-22T14:32:59.652Z,98377.94
2022-08-22T14:35:41.217Z,98390.44
2022-08-22T14:38:29.936Z,98401.44
2022-08-22T14:41:55.420Z,98410.47
2022-08-22T14:44:39.104Z,98404.44
2022-08-22T14:47:55.471Z,98405.78
2022-08-22T14:50:49.375Z,98412.53
2022-08-22T14:53:20.207Z,98424.66
2022-08-22T14:56:25.550Z,98432.19
2022-08-22T14:58:58.898Z,98445.03
2022-08-22T15:01:33.075Z,98446.00
2022-08-22T15:04:10.445Z,98439.97
2022-08-22T15:07:07.536Z,98440.22
2022-08-22T15:09:52.560Z,98429.31
2022-08-22T15:12:32.340Z,98426.06
2022-08-22T15:15:05.160Z,98412.03
2022-08-22T15:17:44.745Z,98412.44
2022-08-22T15:20:49.244Z,98405.88
2022-08-22T15:23:24.055Z,98403.16
2022-08-22T15:26:23.827Z,98416.25
2022-08-22T15:29:04.413Z,98416.09
2022-08-22T15:31:32.372Z,98423.59
2022-08-22T15:34:19.934Z,98408.72
2022-08-22T15:37:16.638Z,98410.38
2022-08-22T15:40:30.569Z,98415.59
2022-08-22T15:42:59.110Z,98416.91
2022-08-22T15:45:34.797Z,98415.28
2022-08-22T15:48:10.843Z,98416.09
2022-08-22T15:50:58.706Z,98415.28
2022-08-22T15:54:02.619Z,98421.66
2022-08-22T15:57:25.529Z,98411.84
2022-08-22T16:00:11.117Z,98402.72
2022-08-22T16:03:02.006Z,98410.38
2022-08-22T16:05:54.584Z,98405.31
2022-08-22T16:08:49.741Z,98414.97
2022-08-22T16:11:32.259Z,98413.00
2022-08-22T16:14:21.473Z,98409.41
2022-08-22T16:17:01.184Z,98416.25
2022-08-22T16:19:31.871Z,98425.91
2022-08-22T16:22:01.758Z,98417.56
2022-08-22T16:24:33.826Z,98417.72
2022-08-22T16:27:20.192Z,98420.34
2022-08-22T16:29:47.747Z,98416.25
2022-08-22T16:32:28.182Z,98410.69
2022-08-22T16:34:55.647Z,98424.94
2022-08-22T16:37:25.976Z,98427.72
2022-08-22T16:40:01.049Z,98428.84
2022-08-22T16:42:42.734Z,98429.16
2022-08-22T16:45:34.880Z,98432.25
2022-08-22T16:48:31.267Z,98432.59
2022-08-22T16:51:15.963Z,98439.81
2022-08-22T16:54:12.629Z,98442.91
2022-08-22T16:57:09.177Z,98440.13
2022-08-22T16:59:57.703Z,98442.38
2022-08-22T17:02:48.355Z,98437.50
2022-08-22T17:05:41.467Z,98444.69
2022-08-22T17:08:34.603Z,98441.09
2022-08-22T17:11:16.611Z,98425.91
2022-08-22T17:14:21.034Z,98424.59
2022-08-22T17:17:00.490Z,98438.16
2022-08-22T17:20:03.105Z,98432.91
2022-08-22T17:22:57.989Z,98435.69
2022-08-22T17:25:54.309Z,98440.44
2022-08-22T17:28:56.151Z,98447.16
2022-08-22T17:31:50.950Z,98443.56
2022-08-22T17:34:39.638Z,98440.78
2022-08-22T17:37:53.163Z,98445.50
2022-08-22T17:40:58.605Z,98445.50
2022-08-22T17:44:16.107Z,98461.88
2022-08-22T17:47:16.219Z,98467.41
2022-08-22T17:49:45.199Z,98466.91
2022-08-22T17:52:28.531Z,98458.06
2022-08-22T17:55:28.416Z,98462.19
2022-08-22T17:58:12.783Z,98466.41
2022-08-22T18:01:32.161Z,98464.28
2022-08-22T18:04:08.314Z,98473.13
2022-08-22T18:06:47.564Z,98468.50
2022-08-22T18:09:35.633Z,98481.28
2022-08-22T18:12:15.908Z,98476.34
2022-08-22T18:14:55.791Z,98482.72
2022-08-22T18:17:44.389Z,98485.31
2022-08-22T18:20:23.138Z,98486.16
2022-08-22T18:23:21.748Z,98491.38
2022-08-22T18:26:27.381Z,98493.66
2022-08-22T18:29:06.551Z,98486.81
2022-08-22T18:32:08.018Z,98489.06
2022-08-22T18:35:16.893Z,98492.84
2022-08-22T18:37:59.491Z,98489.56
2022-08-22T18:40:55.189Z,98486.44
2022-08-22T18:43:31.934Z,98492.34
2022-08-22T18:46:04.072Z,98485.44
2022-08-22T18:48:54.468Z,98480.72
2022-08-22T18:51:38.858Z,98496.38
2022-08-22T18:54:11.237Z,98491.66
2022-08-22T18:57:42.472Z,98501.63
2022-08-22T19:00:45.740Z,98489.19
2022-08-22T19:03:40.983Z,98492.31
2022-08-22T19:06:58.640Z,98495.41
2022-08-22T19:10:20.918Z,98495.38
2022-08-22T19:13:43.073Z,98523.66
2022-08-22T19:16:52.209Z,98524.47
2022-08-22T19:19:48.105Z,98495.06
2022-08-22T19:22:22.103Z,98481.50
2022-08-22T19:25:28.532Z,98499.28
2022-08-22T19:28:15.077Z,98508.25
2022-08-22T19:31:16.556Z,98510.34
2022-08-22T19:34:09.223Z,98521.97
2022-08-22T19:36:36.676Z,98527.53
2022-08-22T19:39:10.557Z,98523.44
2022-08-22T19:41:58.129Z,98522.94
2022-08-22T19:44:35.163Z,98530.44
2022-08-22T19:47:20.892Z,98532.06
2022-08-22T19:50:08.088Z,98532.56
2022-08-22T19:52:51.307Z,98533.69
2022-08-22T19:55:45.479Z,98532.34
2022-08-22T19:58:32.554Z,98529.25
2022-08-22T20:01:32.071Z,98526.19
2022-08-22T20:04:20.729Z,98530.56
2022-08-22T20:07:45.323Z,98536.41
2022-08-22T20:10:26.029Z,98533.63
2022-08-22T20:13:18.883Z,98532.13
2022-08-22T20:16:19.776Z,98547.34
2022-08-22T20:19:06.015Z,98545.19
2022-08-22T20:22:02.080Z,98550.72
2022-08-22T20:25:02.662Z,98549.13
2022-08-22T20:27:36.485Z,98551.88
2022-08-22T20:30:15.528Z,98548.28
2022-08-22T20:33:02.186Z,98532.47
2022-08-22T20:35:45.411Z,98528.03
2022-08-22T20:38:20.266Z,98524.97
2022-08-22T20:41:13.553Z,98513.88
2022-08-22T20:43:57.854Z,98515.81
2022-08-22T20:47:12.938Z,98515.47
2022-08-22T20:50:02.164Z,98517.44
2022-08-22T20:52:51.805Z,98511.88
2022-08-22T20:55:31.835Z,98519.69
2022-08-22T20:58:25.161Z,98504.47
2022-08-22T21:00:57.385Z,98509.72
2022-08-22T21:03:46.824Z,98515.44
2022-08-22T21:06:24.393Z,98517.38
2022-08-22T21:12:18.241Z,98509.72
2022-08-22T21:14:47.435Z,98513.09
2022-08-22T21:17:39.086Z,98518.66
2022-08-22T21:23:14.454Z,98521.84
2022-08-22T21:25:52.042Z,98511.94
2022-08-22T21:28:53.518Z,98507.50
2022-08-22T21:31:29.320Z,98507.69
2022-08-22T21:33:57.405Z,98505.22
2022-08-22T21:36:30.366Z,98499.66
2022-08-22T21:39:27.499Z,98496.59
2022-08-22T21:42:00.683Z,98498.53
2022-08-22T21:44:43.312Z,98490.56
2022-08-22T21:47:31.569Z,98491.69
2022-08-22T21:50:19.267Z,98488.09
2022-08-22T21:52:55.413Z,98489.75
2022-08-22T21:55:34.469Z,98490.88
2022-08-22T21:58:35.931Z,98488.91
2022-08-22T22:01:28.677Z,98479.78
2022-08-22T22:03:58.877Z,98476.19
2022-08-22T22:06:26.942Z,98469.63
2022-08-22T22:08:55.276Z,98474.06
2022-08-22T22:11:22.753Z,98464.91
2022-08-22T22:13:50.060Z,98470.47
2022-08-22T22:16:29.906Z,98470.28
2022-08-22T22:18:57.333Z,98465.88
2022-08-22T22:21:24.685Z,98476.47
2022-08-22T22:23:52.596Z,98483.31
2022-08-22T22:26:21.580Z,98494.25
2022-08-22T22:28:50.344Z,98495.06
2022-08-22T22:31:19.590Z,98495.66
2022-08-22T22:33:47.093Z,98494.38
2022-08-22T22:36:23.768Z,98507.91
2022-08-22T22:38:52.228Z,98493.53
2022-08-22T22:41:25.332Z,98496.84
2022-08-22T22:43:54.657Z,98488.00
2022-08-22T22:46:23.562Z,98485.22
2022-08-22T22:48:51.187Z,98486.88
2022-08-22T22:51:18.832Z,98486.06
2022-08-22T22:53:46.789Z,98479.38
2022-08-22T22:56:21.516Z,98473.66
2022-08-22T22:58:49.890Z,98479.38
2022-08-22T23:01:27.061Z,98470.53
2022-08-22T23:03:57.592Z,98469.41
2022-08-22T23:06:28.857Z,98479.97
2022-08-22T23:08:57.867Z,98461.75
2022-08-22T23:11:30.841Z,98468.41
2022-08-22T23:13:58.142Z,98469.22
2022-08-22T23:16:28.803Z,98462.03
2022-08-22T23:18:56.829Z,98474.13
2022-08-22T23:21:29.665Z,98468.41
2022-08-22T23:23:59.467Z,98474.13
2022-08-22T23:26:29.050Z,98470.53
2022-08-22T23:28:59.930Z,98478.84
2022-08-22T23:37:35.919Z,98482.41
2022-08-22T23:40:07.657Z,98486.00
2022-08-22T23:42:35.225Z,98474.09
2022-08-22T23:45:02.582Z,98474.41
2022-08-22T23:47:30.033Z,98476.03
2022-08-22T23:49:57.425Z,98487.13
2022-08-22T23:52:25.355Z,98485.69
2022-08-22T23:54:55.614Z,98476.69
2022-08-22T23:57:27.722Z,98488.59
2022-08-22T23:59:57.709Z,98486.63
